<?xml version="1.0" encoding="UTF-8" standalone="no" ?>
<gpx xmlns="http://www.topografix.com/GPX/1/1" xmlns:xsi="http://www.w3.org/2001/XMLSchema-instance" xsi:schemaLocation="http://www.topografix.com/GPX/1/1 http://www.topografix.com/GPX/1/1/gpx.xsd" version="1.1" creator="VisuGPX - https://www.visugpx.com">
  <metadata>
    <name>13_ St Etienne du gres ND chaieau</name>
  </metadata>
  <trk>
    <name><![CDATA[13_ gres ND chaieau]]></name>
    <trkseg>
      <trkpt lat="43.78134" lon="4.73003">
        <ele>8.31</ele>
        <time>2018-03-08T13:41:22Z</time>
      </trkpt>
      <trkpt lat="43.78133" lon="4.73003">
        <ele>8.31</ele>
        <time>2018-03-08T13:41:53Z</time>
      </trkpt>
      <trkpt lat="43.78134" lon="4.73006">
        <ele>8.31</ele>
        <time>2018-03-08T13:42:17Z</time>
      </trkpt>
      <trkpt lat="43.78141" lon="4.7301">
        <ele>8.31</ele>
        <time>2018-03-08T13:42:30Z</time>
      </trkpt>
      <trkpt lat="43.78141" lon="4.73011">
        <ele>8.31</ele>
        <time>2018-03-08T13:42:54Z</time>
      </trkpt>
      <trkpt lat="43.78143" lon="4.73007">
        <ele>8.31</ele>
        <time>2018-03-08T13:43:12Z</time>
      </trkpt>
      <trkpt lat="43.78141" lon="4.73007">
        <ele>8.31</ele>
        <time>2018-03-08T13:43:24Z</time>
      </trkpt>
      <trkpt lat="43.7814" lon="4.7301">
        <ele>8.31</ele>
        <time>2018-03-08T13:43:40Z</time>
      </trkpt>
      <trkpt lat="43.7814" lon="4.73014">
        <ele>8.31</ele>
        <time>2018-03-08T13:43:55Z</time>
      </trkpt>
      <trkpt lat="43.78141" lon="4.73014">
        <ele>8.31</ele>
        <time>2018-03-08T13:44:18Z</time>
      </trkpt>
      <trkpt lat="43.78141" lon="4.73011">
        <ele>8.31</ele>
        <time>2018-03-08T13:44:28Z</time>
      </trkpt>
      <trkpt lat="43.78141" lon="4.73001">
        <ele>8.31</ele>
        <time>2018-03-08T13:44:40Z</time>
      </trkpt>
      <trkpt lat="43.78137" lon="4.72976">
        <ele>8.31</ele>
        <time>2018-03-08T13:44:56Z</time>
      </trkpt>
      <trkpt lat="43.78134" lon="4.72962">
        <ele>8.31</ele>
        <time>2018-03-08T13:45:05Z</time>
      </trkpt>
      <trkpt lat="43.78134" lon="4.72957">
        <ele>9.75</ele>
        <time>2018-03-08T13:45:08Z</time>
      </trkpt>
      <trkpt lat="43.78131" lon="4.72933">
        <ele>9.75</ele>
        <time>2018-03-08T13:45:22Z</time>
      </trkpt>
      <trkpt lat="43.78125" lon="4.72912">
        <ele>9.75</ele>
        <time>2018-03-08T13:45:37Z</time>
      </trkpt>
      <trkpt lat="43.78121" lon="4.72897">
        <ele>10.71</ele>
        <time>2018-03-08T13:45:47Z</time>
      </trkpt>
      <trkpt lat="43.78118" lon="4.72877">
        <ele>10.71</ele>
        <time>2018-03-08T13:46:01Z</time>
      </trkpt>
      <trkpt lat="43.78118" lon="4.72853">
        <ele>10.71</ele>
        <time>2018-03-08T13:46:17Z</time>
      </trkpt>
      <trkpt lat="43.78119" lon="4.72851">
        <ele>10.71</ele>
        <time>2018-03-08T13:46:18Z</time>
      </trkpt>
      <trkpt lat="43.7812" lon="4.72827">
        <ele>11.19</ele>
        <time>2018-03-08T13:46:32Z</time>
      </trkpt>
      <trkpt lat="43.78122" lon="4.72804">
        <ele>11.19</ele>
        <time>2018-03-08T13:46:44Z</time>
      </trkpt>
      <trkpt lat="43.78122" lon="4.72775">
        <ele>11.67</ele>
        <time>2018-03-08T13:46:59Z</time>
      </trkpt>
      <trkpt lat="43.78123" lon="4.7275">
        <ele>11.67</ele>
        <time>2018-03-08T13:47:13Z</time>
      </trkpt>
      <trkpt lat="43.78124" lon="4.72732">
        <ele>11.67</ele>
        <time>2018-03-08T13:47:25Z</time>
      </trkpt>
      <trkpt lat="43.78125" lon="4.72711">
        <ele>11.67</ele>
        <time>2018-03-08T13:47:40Z</time>
      </trkpt>
      <trkpt lat="43.78125" lon="4.72696">
        <ele>11.67</ele>
        <time>2018-03-08T13:47:48Z</time>
      </trkpt>
      <trkpt lat="43.78124" lon="4.72692">
        <ele>11.67</ele>
        <time>2018-03-08T13:47:51Z</time>
      </trkpt>
      <trkpt lat="43.78121" lon="4.72686">
        <ele>11.67</ele>
        <time>2018-03-08T13:47:54Z</time>
      </trkpt>
      <trkpt lat="43.78115" lon="4.72654">
        <ele>11.67</ele>
        <time>2018-03-08T13:48:09Z</time>
      </trkpt>
      <trkpt lat="43.78115" lon="4.72635">
        <ele>11.67</ele>
        <time>2018-03-08T13:48:19Z</time>
      </trkpt>
      <trkpt lat="43.78117" lon="4.72606">
        <ele>11.67</ele>
        <time>2018-03-08T13:48:34Z</time>
      </trkpt>
      <trkpt lat="43.78116" lon="4.72604">
        <ele>11.67</ele>
        <time>2018-03-08T13:48:35Z</time>
      </trkpt>
      <trkpt lat="43.78116" lon="4.72579">
        <ele>11.67</ele>
        <time>2018-03-08T13:48:49Z</time>
      </trkpt>
      <trkpt lat="43.78117" lon="4.72573">
        <ele>11.67</ele>
        <time>2018-03-08T13:48:52Z</time>
      </trkpt>
      <trkpt lat="43.78112" lon="4.72547">
        <ele>10.71</ele>
        <time>2018-03-08T13:49:07Z</time>
      </trkpt>
      <trkpt lat="43.78106" lon="4.72518">
        <ele>10.71</ele>
        <time>2018-03-08T13:49:23Z</time>
      </trkpt>
      <trkpt lat="43.781" lon="4.72497">
        <ele>10.71</ele>
        <time>2018-03-08T13:49:37Z</time>
      </trkpt>
      <trkpt lat="43.78097" lon="4.72484">
        <ele>10.71</ele>
        <time>2018-03-08T13:49:44Z</time>
      </trkpt>
      <trkpt lat="43.78096" lon="4.72472">
        <ele>10.71</ele>
        <time>2018-03-08T13:49:50Z</time>
      </trkpt>
      <trkpt lat="43.78092" lon="4.72458">
        <ele>10.71</ele>
        <time>2018-03-08T13:49:59Z</time>
      </trkpt>
      <trkpt lat="43.78089" lon="4.72438">
        <ele>10.71</ele>
        <time>2018-03-08T13:50:10Z</time>
      </trkpt>
      <trkpt lat="43.78086" lon="4.72413">
        <ele>10.23</ele>
        <time>2018-03-08T13:50:24Z</time>
      </trkpt>
      <trkpt lat="43.78084" lon="4.72404">
        <ele>10.23</ele>
        <time>2018-03-08T13:50:29Z</time>
      </trkpt>
      <trkpt lat="43.78078" lon="4.72383">
        <ele>10.23</ele>
        <time>2018-03-08T13:50:43Z</time>
      </trkpt>
      <trkpt lat="43.78077" lon="4.72368">
        <ele>10.23</ele>
        <time>2018-03-08T13:50:53Z</time>
      </trkpt>
      <trkpt lat="43.78072" lon="4.72348">
        <ele>10.23</ele>
        <time>2018-03-08T13:51:03Z</time>
      </trkpt>
      <trkpt lat="43.78069" lon="4.72335">
        <ele>10.23</ele>
        <time>2018-03-08T13:51:11Z</time>
      </trkpt>
      <trkpt lat="43.78063" lon="4.72316">
        <ele>10.23</ele>
        <time>2018-03-08T13:51:22Z</time>
      </trkpt>
      <trkpt lat="43.78057" lon="4.72314">
        <ele>10.23</ele>
        <time>2018-03-08T13:51:26Z</time>
      </trkpt>
      <trkpt lat="43.78043" lon="4.72325">
        <ele>10.23</ele>
        <time>2018-03-08T13:51:37Z</time>
      </trkpt>
      <trkpt lat="43.78037" lon="4.7233">
        <ele>10.23</ele>
        <time>2018-03-08T13:51:41Z</time>
      </trkpt>
      <trkpt lat="43.78022" lon="4.72351">
        <ele>10.23</ele>
        <time>2018-03-08T13:51:58Z</time>
      </trkpt>
      <trkpt lat="43.78012" lon="4.72366">
        <ele>11.67</ele>
        <time>2018-03-08T13:52:09Z</time>
      </trkpt>
      <trkpt lat="43.77999" lon="4.72383">
        <ele>11.19</ele>
        <time>2018-03-08T13:52:24Z</time>
      </trkpt>
      <trkpt lat="43.77998" lon="4.72385">
        <ele>11.19</ele>
        <time>2018-03-08T13:52:25Z</time>
      </trkpt>
      <trkpt lat="43.77981" lon="4.72404">
        <ele>11.67</ele>
        <time>2018-03-08T13:52:40Z</time>
      </trkpt>
      <trkpt lat="43.77965" lon="4.72419">
        <ele>11.67</ele>
        <time>2018-03-08T13:52:55Z</time>
      </trkpt>
      <trkpt lat="43.77949" lon="4.72433">
        <ele>12.63</ele>
        <time>2018-03-08T13:53:09Z</time>
      </trkpt>
      <trkpt lat="43.7793" lon="4.72448">
        <ele>13.12</ele>
        <time>2018-03-08T13:53:26Z</time>
      </trkpt>
      <trkpt lat="43.77918" lon="4.72456">
        <ele>13.6</ele>
        <time>2018-03-08T13:53:36Z</time>
      </trkpt>
      <trkpt lat="43.77901" lon="4.72467">
        <ele>14.08</ele>
        <time>2018-03-08T13:53:53Z</time>
      </trkpt>
      <trkpt lat="43.77883" lon="4.72481">
        <ele>15.04</ele>
        <time>2018-03-08T13:54:09Z</time>
      </trkpt>
      <trkpt lat="43.77873" lon="4.7249">
        <ele>15.52</ele>
        <time>2018-03-08T13:54:19Z</time>
      </trkpt>
      <trkpt lat="43.77868" lon="4.72495">
        <ele>15.52</ele>
        <time>2018-03-08T13:54:24Z</time>
      </trkpt>
      <trkpt lat="43.77852" lon="4.72507">
        <ele>16.48</ele>
        <time>2018-03-08T13:54:38Z</time>
      </trkpt>
      <trkpt lat="43.7785" lon="4.7251">
        <ele>16.48</ele>
        <time>2018-03-08T13:54:41Z</time>
      </trkpt>
      <trkpt lat="43.77832" lon="4.72529">
        <ele>16.96</ele>
        <time>2018-03-08T13:54:56Z</time>
      </trkpt>
      <trkpt lat="43.77818" lon="4.72543">
        <ele>17.44</ele>
        <time>2018-03-08T13:55:09Z</time>
      </trkpt>
      <trkpt lat="43.77801" lon="4.72558">
        <ele>16.96</ele>
        <time>2018-03-08T13:55:24Z</time>
      </trkpt>
      <trkpt lat="43.77783" lon="4.72571">
        <ele>17.44</ele>
        <time>2018-03-08T13:55:39Z</time>
      </trkpt>
      <trkpt lat="43.77777" lon="4.72576">
        <ele>17.44</ele>
        <time>2018-03-08T13:55:44Z</time>
      </trkpt>
      <trkpt lat="43.7776" lon="4.72591">
        <ele>19.36</ele>
        <time>2018-03-08T13:55:59Z</time>
      </trkpt>
      <trkpt lat="43.77741" lon="4.72603">
        <ele>19.36</ele>
        <time>2018-03-08T13:56:15Z</time>
      </trkpt>
      <trkpt lat="43.77723" lon="4.72616">
        <ele>20.32</ele>
        <time>2018-03-08T13:56:29Z</time>
      </trkpt>
      <trkpt lat="43.77722" lon="4.72617">
        <ele>20.32</ele>
        <time>2018-03-08T13:56:30Z</time>
      </trkpt>
      <trkpt lat="43.77717" lon="4.72622">
        <ele>20.32</ele>
        <time>2018-03-08T13:56:35Z</time>
      </trkpt>
      <trkpt lat="43.77699" lon="4.72632">
        <ele>21.29</ele>
        <time>2018-03-08T13:56:49Z</time>
      </trkpt>
      <trkpt lat="43.77697" lon="4.72634">
        <ele>21.29</ele>
        <time>2018-03-08T13:56:51Z</time>
      </trkpt>
      <trkpt lat="43.77691" lon="4.72637">
        <ele>21.29</ele>
        <time>2018-03-08T13:56:57Z</time>
      </trkpt>
      <trkpt lat="43.77675" lon="4.72645">
        <ele>21.29</ele>
        <time>2018-03-08T13:57:11Z</time>
      </trkpt>
      <trkpt lat="43.77658" lon="4.72654">
        <ele>21.29</ele>
        <time>2018-03-08T13:57:25Z</time>
      </trkpt>
      <trkpt lat="43.77648" lon="4.72665">
        <ele>21.77</ele>
        <time>2018-03-08T13:57:34Z</time>
      </trkpt>
      <trkpt lat="43.77645" lon="4.72673">
        <ele>22.25</ele>
        <time>2018-03-08T13:57:39Z</time>
      </trkpt>
      <trkpt lat="43.77641" lon="4.7268">
        <ele>22.25</ele>
        <time>2018-03-08T13:57:44Z</time>
      </trkpt>
      <trkpt lat="43.77641" lon="4.72687">
        <ele>22.25</ele>
        <time>2018-03-08T13:57:48Z</time>
      </trkpt>
      <trkpt lat="43.77647" lon="4.72712">
        <ele>22.25</ele>
        <time>2018-03-08T13:58:04Z</time>
      </trkpt>
      <trkpt lat="43.77647" lon="4.72714">
        <ele>22.25</ele>
        <time>2018-03-08T13:58:05Z</time>
      </trkpt>
      <trkpt lat="43.77648" lon="4.72717">
        <ele>22.25</ele>
        <time>2018-03-08T13:58:07Z</time>
      </trkpt>
      <trkpt lat="43.77653" lon="4.72725">
        <ele>22.25</ele>
        <time>2018-03-08T13:58:13Z</time>
      </trkpt>
      <trkpt lat="43.77657" lon="4.72752">
        <ele>22.25</ele>
        <time>2018-03-08T13:58:27Z</time>
      </trkpt>
      <trkpt lat="43.7766" lon="4.72759">
        <ele>22.25</ele>
        <time>2018-03-08T13:58:32Z</time>
      </trkpt>
      <trkpt lat="43.77664" lon="4.72767">
        <ele>22.25</ele>
        <time>2018-03-08T13:58:38Z</time>
      </trkpt>
      <trkpt lat="43.77667" lon="4.72774">
        <ele>21.77</ele>
        <time>2018-03-08T13:58:42Z</time>
      </trkpt>
      <trkpt lat="43.7767" lon="4.72781">
        <ele>21.77</ele>
        <time>2018-03-08T13:58:47Z</time>
      </trkpt>
      <trkpt lat="43.77678" lon="4.72804">
        <ele>21.77</ele>
        <time>2018-03-08T13:59:01Z</time>
      </trkpt>
      <trkpt lat="43.7768" lon="4.72812">
        <ele>21.77</ele>
        <time>2018-03-08T13:59:05Z</time>
      </trkpt>
      <trkpt lat="43.77684" lon="4.72822">
        <ele>21.77</ele>
        <time>2018-03-08T13:59:12Z</time>
      </trkpt>
      <trkpt lat="43.77693" lon="4.72842">
        <ele>21.77</ele>
        <time>2018-03-08T13:59:24Z</time>
      </trkpt>
      <trkpt lat="43.77696" lon="4.72846">
        <ele>21.77</ele>
        <time>2018-03-08T13:59:27Z</time>
      </trkpt>
      <trkpt lat="43.77702" lon="4.72854">
        <ele>21.77</ele>
        <time>2018-03-08T13:59:33Z</time>
      </trkpt>
      <trkpt lat="43.77704" lon="4.72858">
        <ele>21.77</ele>
        <time>2018-03-08T13:59:36Z</time>
      </trkpt>
      <trkpt lat="43.77696" lon="4.72881">
        <ele>21.77</ele>
        <time>2018-03-08T13:59:51Z</time>
      </trkpt>
      <trkpt lat="43.77688" lon="4.72893">
        <ele>22.25</ele>
        <time>2018-03-08T14:00:00Z</time>
      </trkpt>
      <trkpt lat="43.7768" lon="4.72905">
        <ele>22.73</ele>
        <time>2018-03-08T14:00:10Z</time>
      </trkpt>
      <trkpt lat="43.77673" lon="4.72916">
        <ele>22.73</ele>
        <time>2018-03-08T14:00:19Z</time>
      </trkpt>
      <trkpt lat="43.77671" lon="4.72918">
        <ele>22.73</ele>
        <time>2018-03-08T14:00:21Z</time>
      </trkpt>
      <trkpt lat="43.77663" lon="4.72926">
        <ele>22.73</ele>
        <time>2018-03-08T14:00:27Z</time>
      </trkpt>
      <trkpt lat="43.7766" lon="4.7293">
        <ele>22.73</ele>
        <time>2018-03-08T14:00:30Z</time>
      </trkpt>
      <trkpt lat="43.77649" lon="4.72943">
        <ele>22.73</ele>
        <time>2018-03-08T14:00:43Z</time>
      </trkpt>
      <trkpt lat="43.77643" lon="4.72948">
        <ele>22.73</ele>
        <time>2018-03-08T14:00:49Z</time>
      </trkpt>
      <trkpt lat="43.77633" lon="4.72965">
        <ele>23.69</ele>
        <time>2018-03-08T14:01:02Z</time>
      </trkpt>
      <trkpt lat="43.77632" lon="4.72966">
        <ele>23.69</ele>
        <time>2018-03-08T14:01:03Z</time>
      </trkpt>
      <trkpt lat="43.77622" lon="4.72988">
        <ele>24.17</ele>
        <time>2018-03-08T14:01:17Z</time>
      </trkpt>
      <trkpt lat="43.77613" lon="4.73009">
        <ele>25.13</ele>
        <time>2018-03-08T14:01:31Z</time>
      </trkpt>
      <trkpt lat="43.77611" lon="4.73011">
        <ele>25.13</ele>
        <time>2018-03-08T14:01:54Z</time>
      </trkpt>
      <trkpt lat="43.7761" lon="4.73013">
        <ele>25.13</ele>
        <time>2018-03-08T14:02:07Z</time>
      </trkpt>
      <trkpt lat="43.77609" lon="4.7301">
        <ele>25.13</ele>
        <time>2018-03-08T14:02:30Z</time>
      </trkpt>
      <trkpt lat="43.77609" lon="4.73013">
        <ele>25.61</ele>
        <time>2018-03-08T14:02:52Z</time>
      </trkpt>
      <trkpt lat="43.7761" lon="4.73012">
        <ele>25.61</ele>
        <time>2018-03-08T14:03:15Z</time>
      </trkpt>
      <trkpt lat="43.77609" lon="4.73014">
        <ele>25.61</ele>
        <time>2018-03-08T14:03:29Z</time>
      </trkpt>
      <trkpt lat="43.776" lon="4.73039">
        <ele>25.61</ele>
        <time>2018-03-08T14:03:46Z</time>
      </trkpt>
      <trkpt lat="43.7759" lon="4.73064">
        <ele>26.09</ele>
        <time>2018-03-08T14:04:02Z</time>
      </trkpt>
      <trkpt lat="43.77582" lon="4.73087">
        <ele>25.13</ele>
        <time>2018-03-08T14:04:16Z</time>
      </trkpt>
      <trkpt lat="43.77581" lon="4.73092">
        <ele>25.13</ele>
        <time>2018-03-08T14:04:19Z</time>
      </trkpt>
      <trkpt lat="43.77574" lon="4.73103">
        <ele>26.57</ele>
        <time>2018-03-08T14:04:27Z</time>
      </trkpt>
      <trkpt lat="43.77562" lon="4.73126">
        <ele>27.53</ele>
        <time>2018-03-08T14:04:43Z</time>
      </trkpt>
      <trkpt lat="43.77556" lon="4.7315">
        <ele>26.09</ele>
        <time>2018-03-08T14:04:58Z</time>
      </trkpt>
      <trkpt lat="43.7756" lon="4.73165">
        <ele>27.53</ele>
        <time>2018-03-08T14:05:08Z</time>
      </trkpt>
      <trkpt lat="43.77571" lon="4.73187">
        <ele>28.5</ele>
        <time>2018-03-08T14:05:25Z</time>
      </trkpt>
      <trkpt lat="43.77576" lon="4.73197">
        <ele>28.5</ele>
        <time>2018-03-08T14:05:32Z</time>
      </trkpt>
      <trkpt lat="43.77585" lon="4.7322">
        <ele>27.53</ele>
        <time>2018-03-08T14:05:46Z</time>
      </trkpt>
      <trkpt lat="43.77586" lon="4.73224">
        <ele>27.53</ele>
        <time>2018-03-08T14:05:48Z</time>
      </trkpt>
      <trkpt lat="43.77583" lon="4.7325">
        <ele>29.46</ele>
        <time>2018-03-08T14:06:03Z</time>
      </trkpt>
      <trkpt lat="43.77582" lon="4.73262">
        <ele>30.9</ele>
        <time>2018-03-08T14:06:11Z</time>
      </trkpt>
      <trkpt lat="43.77567" lon="4.73273">
        <ele>31.86</ele>
        <time>2018-03-08T14:06:27Z</time>
      </trkpt>
      <trkpt lat="43.77554" lon="4.73283">
        <ele>32.82</ele>
        <time>2018-03-08T14:06:40Z</time>
      </trkpt>
      <trkpt lat="43.77539" lon="4.73297">
        <ele>34.26</ele>
        <time>2018-03-08T14:06:55Z</time>
      </trkpt>
      <trkpt lat="43.77534" lon="4.73305">
        <ele>34.26</ele>
        <time>2018-03-08T14:07:01Z</time>
      </trkpt>
      <trkpt lat="43.77528" lon="4.73315">
        <ele>34.74</ele>
        <time>2018-03-08T14:07:09Z</time>
      </trkpt>
      <trkpt lat="43.77524" lon="4.73327">
        <ele>35.71</ele>
        <time>2018-03-08T14:07:17Z</time>
      </trkpt>
      <trkpt lat="43.77528" lon="4.73352">
        <ele>37.63</ele>
        <time>2018-03-08T14:07:33Z</time>
      </trkpt>
      <trkpt lat="43.77528" lon="4.73355">
        <ele>37.63</ele>
        <time>2018-03-08T14:07:35Z</time>
      </trkpt>
      <trkpt lat="43.77528" lon="4.73359">
        <ele>37.63</ele>
        <time>2018-03-08T14:07:38Z</time>
      </trkpt>
      <trkpt lat="43.77521" lon="4.73374">
        <ele>37.63</ele>
        <time>2018-03-08T14:07:49Z</time>
      </trkpt>
      <trkpt lat="43.77513" lon="4.7339">
        <ele>40.03</ele>
        <time>2018-03-08T14:08:03Z</time>
      </trkpt>
      <trkpt lat="43.77516" lon="4.73415">
        <ele>41.47</ele>
        <time>2018-03-08T14:08:20Z</time>
      </trkpt>
      <trkpt lat="43.77518" lon="4.7343">
        <ele>43.4</ele>
        <time>2018-03-08T14:08:32Z</time>
      </trkpt>
      <trkpt lat="43.77515" lon="4.73454">
        <ele>44.84</ele>
        <time>2018-03-08T14:08:49Z</time>
      </trkpt>
      <trkpt lat="43.77508" lon="4.73458">
        <ele>45.32</ele>
        <time>2018-03-08T14:08:55Z</time>
      </trkpt>
      <trkpt lat="43.77491" lon="4.73455">
        <ele>47.24</ele>
        <time>2018-03-08T14:09:10Z</time>
      </trkpt>
      <trkpt lat="43.77474" lon="4.73449">
        <ele>49.16</ele>
        <time>2018-03-08T14:09:25Z</time>
      </trkpt>
      <trkpt lat="43.77457" lon="4.73446">
        <ele>50.61</ele>
        <time>2018-03-08T14:09:39Z</time>
      </trkpt>
      <trkpt lat="43.77444" lon="4.73452">
        <ele>52.53</ele>
        <time>2018-03-08T14:09:53Z</time>
      </trkpt>
      <trkpt lat="43.77443" lon="4.73459">
        <ele>53.49</ele>
        <time>2018-03-08T14:09:58Z</time>
      </trkpt>
      <trkpt lat="43.77443" lon="4.73479">
        <ele>53.97</ele>
        <time>2018-03-08T14:10:11Z</time>
      </trkpt>
      <trkpt lat="43.77439" lon="4.73487">
        <ele>53.97</ele>
        <time>2018-03-08T14:10:17Z</time>
      </trkpt>
      <trkpt lat="43.77425" lon="4.73505">
        <ele>53.97</ele>
        <time>2018-03-08T14:10:31Z</time>
      </trkpt>
      <trkpt lat="43.77407" lon="4.73519">
        <ele>53.01</ele>
        <time>2018-03-08T14:10:48Z</time>
      </trkpt>
      <trkpt lat="43.77394" lon="4.73531">
        <ele>53.01</ele>
        <time>2018-03-08T14:11:01Z</time>
      </trkpt>
      <trkpt lat="43.77385" lon="4.73544">
        <ele>53.01</ele>
        <time>2018-03-08T14:11:11Z</time>
      </trkpt>
      <trkpt lat="43.77382" lon="4.73556">
        <ele>53.01</ele>
        <time>2018-03-08T14:11:19Z</time>
      </trkpt>
      <trkpt lat="43.7738" lon="4.73577">
        <ele>54.93</ele>
        <time>2018-03-08T14:11:33Z</time>
      </trkpt>
      <trkpt lat="43.7738" lon="4.73593">
        <ele>56.37</ele>
        <time>2018-03-08T14:11:46Z</time>
      </trkpt>
      <trkpt lat="43.7738" lon="4.73594">
        <ele>56.37</ele>
        <time>2018-03-08T14:11:47Z</time>
      </trkpt>
      <trkpt lat="43.77378" lon="4.73606">
        <ele>57.82</ele>
        <time>2018-03-08T14:11:56Z</time>
      </trkpt>
      <trkpt lat="43.77376" lon="4.73613">
        <ele>58.3</ele>
        <time>2018-03-08T14:12:10Z</time>
      </trkpt>
      <trkpt lat="43.77372" lon="4.73617">
        <ele>58.3</ele>
        <time>2018-03-08T14:12:23Z</time>
      </trkpt>
      <trkpt lat="43.7737" lon="4.73618">
        <ele>59.26</ele>
        <time>2018-03-08T14:12:25Z</time>
      </trkpt>
      <trkpt lat="43.77365" lon="4.73623">
        <ele>59.26</ele>
        <time>2018-03-08T14:12:39Z</time>
      </trkpt>
      <trkpt lat="43.77365" lon="4.73624">
        <ele>59.74</ele>
        <time>2018-03-08T14:12:56Z</time>
      </trkpt>
      <trkpt lat="43.77362" lon="4.73641">
        <ele>61.66</ele>
        <time>2018-03-08T14:13:10Z</time>
      </trkpt>
      <trkpt lat="43.77361" lon="4.73649">
        <ele>62.14</ele>
        <time>2018-03-08T14:13:17Z</time>
      </trkpt>
      <trkpt lat="43.77361" lon="4.73653">
        <ele>62.14</ele>
        <time>2018-03-08T14:13:20Z</time>
      </trkpt>
      <trkpt lat="43.77355" lon="4.73668">
        <ele>64.07</ele>
        <time>2018-03-08T14:13:33Z</time>
      </trkpt>
      <trkpt lat="43.77349" lon="4.73672">
        <ele>64.07</ele>
        <time>2018-03-08T14:13:39Z</time>
      </trkpt>
      <trkpt lat="43.77338" lon="4.73686">
        <ele>65.51</ele>
        <time>2018-03-08T14:13:54Z</time>
      </trkpt>
      <trkpt lat="43.7733" lon="4.73695">
        <ele>66.47</ele>
        <time>2018-03-08T14:14:09Z</time>
      </trkpt>
      <trkpt lat="43.77318" lon="4.73704">
        <ele>66.95</ele>
        <time>2018-03-08T14:14:22Z</time>
      </trkpt>
      <trkpt lat="43.77314" lon="4.7371">
        <ele>68.39</ele>
        <time>2018-03-08T14:14:36Z</time>
      </trkpt>
      <trkpt lat="43.77314" lon="4.73711">
        <ele>68.39</ele>
        <time>2018-03-08T14:15:11Z</time>
      </trkpt>
      <trkpt lat="43.77312" lon="4.73714">
        <ele>68.39</ele>
        <time>2018-03-08T14:15:37Z</time>
      </trkpt>
      <trkpt lat="43.77316" lon="4.73709">
        <ele>68.39</ele>
        <time>2018-03-08T14:16:07Z</time>
      </trkpt>
      <trkpt lat="43.77316" lon="4.73707">
        <ele>68.39</ele>
        <time>2018-03-08T14:16:32Z</time>
      </trkpt>
      <trkpt lat="43.77316" lon="4.73707">
        <ele>68.39</ele>
        <time>2018-03-08T14:16:51Z</time>
      </trkpt>
      <trkpt lat="43.77318" lon="4.73715">
        <ele>68.39</ele>
        <time>2018-03-08T14:16:58Z</time>
      </trkpt>
      <trkpt lat="43.77318" lon="4.73733">
        <ele>67.43</ele>
        <time>2018-03-08T14:17:11Z</time>
      </trkpt>
      <trkpt lat="43.77315" lon="4.73757">
        <ele>65.99</ele>
        <time>2018-03-08T14:17:27Z</time>
      </trkpt>
      <trkpt lat="43.77315" lon="4.73775">
        <ele>64.55</ele>
        <time>2018-03-08T14:17:41Z</time>
      </trkpt>
      <trkpt lat="43.77309" lon="4.73794">
        <ele>63.1</ele>
        <time>2018-03-08T14:17:56Z</time>
      </trkpt>
      <trkpt lat="43.77294" lon="4.73812">
        <ele>62.14</ele>
        <time>2018-03-08T14:18:12Z</time>
      </trkpt>
      <trkpt lat="43.7729" lon="4.73817">
        <ele>60.7</ele>
        <time>2018-03-08T14:18:26Z</time>
      </trkpt>
      <trkpt lat="43.77288" lon="4.73818">
        <ele>60.7</ele>
        <time>2018-03-08T14:18:51Z</time>
      </trkpt>
      <trkpt lat="43.77285" lon="4.73818">
        <ele>60.7</ele>
        <time>2018-03-08T14:19:07Z</time>
      </trkpt>
      <trkpt lat="43.77283" lon="4.73828">
        <ele>59.74</ele>
        <time>2018-03-08T14:19:23Z</time>
      </trkpt>
      <trkpt lat="43.77283" lon="4.73829">
        <ele>60.22</ele>
        <time>2018-03-08T14:19:47Z</time>
      </trkpt>
      <trkpt lat="43.77286" lon="4.7383">
        <ele>60.22</ele>
        <time>2018-03-08T14:20:12Z</time>
      </trkpt>
      <trkpt lat="43.77288" lon="4.73829">
        <ele>59.74</ele>
        <time>2018-03-08T14:20:15Z</time>
      </trkpt>
      <trkpt lat="43.77299" lon="4.73825">
        <ele>57.82</ele>
        <time>2018-03-08T14:20:29Z</time>
      </trkpt>
      <trkpt lat="43.77313" lon="4.73822">
        <ele>57.34</ele>
        <time>2018-03-08T14:20:46Z</time>
      </trkpt>
      <trkpt lat="43.77322" lon="4.73822">
        <ele>55.41</ele>
        <time>2018-03-08T14:21:00Z</time>
      </trkpt>
      <trkpt lat="43.77331" lon="4.73819">
        <ele>54.93</ele>
        <time>2018-03-08T14:21:29Z</time>
      </trkpt>
      <trkpt lat="43.77344" lon="4.73813">
        <ele>53.49</ele>
        <time>2018-03-08T14:21:45Z</time>
      </trkpt>
      <trkpt lat="43.77359" lon="4.73799">
        <ele>52.53</ele>
        <time>2018-03-08T14:22:00Z</time>
      </trkpt>
      <trkpt lat="43.77374" lon="4.73785">
        <ele>51.57</ele>
        <time>2018-03-08T14:22:17Z</time>
      </trkpt>
      <trkpt lat="43.77378" lon="4.73785">
        <ele>51.09</ele>
        <time>2018-03-08T14:22:28Z</time>
      </trkpt>
      <trkpt lat="43.7738" lon="4.73786">
        <ele>51.09</ele>
        <time>2018-03-08T14:22:32Z</time>
      </trkpt>
      <trkpt lat="43.77386" lon="4.73791">
        <ele>49.16</ele>
        <time>2018-03-08T14:22:46Z</time>
      </trkpt>
      <trkpt lat="43.77397" lon="4.73797">
        <ele>48.68</ele>
        <time>2018-03-08T14:22:57Z</time>
      </trkpt>
      <trkpt lat="43.77412" lon="4.73799">
        <ele>47.24</ele>
        <time>2018-03-08T14:23:11Z</time>
      </trkpt>
      <trkpt lat="43.77421" lon="4.73803">
        <ele>46.28</ele>
        <time>2018-03-08T14:23:24Z</time>
      </trkpt>
      <trkpt lat="43.77425" lon="4.73805">
        <ele>46.76</ele>
        <time>2018-03-08T14:23:40Z</time>
      </trkpt>
      <trkpt lat="43.77442" lon="4.73819">
        <ele>43.4</ele>
        <time>2018-03-08T14:23:57Z</time>
      </trkpt>
      <trkpt lat="43.77455" lon="4.73832">
        <ele>41.95</ele>
        <time>2018-03-08T14:24:12Z</time>
      </trkpt>
      <trkpt lat="43.77456" lon="4.73833">
        <ele>41.47</ele>
        <time>2018-03-08T14:24:13Z</time>
      </trkpt>
      <trkpt lat="43.77468" lon="4.7385">
        <ele>40.99</ele>
        <time>2018-03-08T14:24:28Z</time>
      </trkpt>
      <trkpt lat="43.77469" lon="4.73863">
        <ele>40.99</ele>
        <time>2018-03-08T14:24:36Z</time>
      </trkpt>
      <trkpt lat="43.77467" lon="4.73867">
        <ele>42.44</ele>
        <time>2018-03-08T14:24:38Z</time>
      </trkpt>
      <trkpt lat="43.77465" lon="4.73872">
        <ele>43.4</ele>
        <time>2018-03-08T14:24:42Z</time>
      </trkpt>
      <trkpt lat="43.7745" lon="4.73882">
        <ele>44.84</ele>
        <time>2018-03-08T14:24:57Z</time>
      </trkpt>
      <trkpt lat="43.77446" lon="4.73885">
        <ele>45.32</ele>
        <time>2018-03-08T14:25:02Z</time>
      </trkpt>
      <trkpt lat="43.77435" lon="4.73891">
        <ele>46.28</ele>
        <time>2018-03-08T14:25:21Z</time>
      </trkpt>
      <trkpt lat="43.77428" lon="4.73897">
        <ele>46.28</ele>
        <time>2018-03-08T14:25:37Z</time>
      </trkpt>
      <trkpt lat="43.77411" lon="4.7391">
        <ele>47.24</ele>
        <time>2018-03-08T14:25:56Z</time>
      </trkpt>
      <trkpt lat="43.77396" lon="4.73915">
        <ele>49.16</ele>
        <time>2018-03-08T14:26:11Z</time>
      </trkpt>
      <trkpt lat="43.77386" lon="4.73928">
        <ele>50.61</ele>
        <time>2018-03-08T14:26:24Z</time>
      </trkpt>
      <trkpt lat="43.77377" lon="4.7394">
        <ele>52.53</ele>
        <time>2018-03-08T14:26:39Z</time>
      </trkpt>
      <trkpt lat="43.77381" lon="4.73939">
        <ele>52.53</ele>
        <time>2018-03-08T14:27:01Z</time>
      </trkpt>
      <trkpt lat="43.77374" lon="4.73947">
        <ele>53.49</ele>
        <time>2018-03-08T14:27:17Z</time>
      </trkpt>
      <trkpt lat="43.77359" lon="4.73966">
        <ele>54.93</ele>
        <time>2018-03-08T14:27:33Z</time>
      </trkpt>
      <trkpt lat="43.77345" lon="4.73979">
        <ele>55.89</ele>
        <time>2018-03-08T14:27:47Z</time>
      </trkpt>
      <trkpt lat="43.77337" lon="4.73991">
        <ele>55.89</ele>
        <time>2018-03-08T14:28:03Z</time>
      </trkpt>
      <trkpt lat="43.77326" lon="4.74007">
        <ele>57.82</ele>
        <time>2018-03-08T14:28:18Z</time>
      </trkpt>
      <trkpt lat="43.77324" lon="4.74024">
        <ele>59.74</ele>
        <time>2018-03-08T14:28:33Z</time>
      </trkpt>
      <trkpt lat="43.77325" lon="4.7404">
        <ele>62.14</ele>
        <time>2018-03-08T14:28:47Z</time>
      </trkpt>
      <trkpt lat="43.77326" lon="4.74041">
        <ele>62.14</ele>
        <time>2018-03-08T14:28:48Z</time>
      </trkpt>
      <trkpt lat="43.77326" lon="4.74058">
        <ele>64.07</ele>
        <time>2018-03-08T14:29:02Z</time>
      </trkpt>
      <trkpt lat="43.77326" lon="4.74074">
        <ele>65.51</ele>
        <time>2018-03-08T14:29:17Z</time>
      </trkpt>
      <trkpt lat="43.77328" lon="4.74088">
        <ele>66.95</ele>
        <time>2018-03-08T14:29:33Z</time>
      </trkpt>
      <trkpt lat="43.7733" lon="4.74104">
        <ele>69.35</ele>
        <time>2018-03-08T14:29:48Z</time>
      </trkpt>
      <trkpt lat="43.7733" lon="4.74116">
        <ele>72.72</ele>
        <time>2018-03-08T14:30:01Z</time>
      </trkpt>
      <trkpt lat="43.7733" lon="4.74117">
        <ele>72.72</ele>
        <time>2018-03-08T14:30:02Z</time>
      </trkpt>
      <trkpt lat="43.77328" lon="4.74131">
        <ele>74.64</ele>
        <time>2018-03-08T14:30:16Z</time>
      </trkpt>
      <trkpt lat="43.77328" lon="4.74146">
        <ele>75.6</ele>
        <time>2018-03-08T14:30:32Z</time>
      </trkpt>
      <trkpt lat="43.77327" lon="4.74155">
        <ele>77.04</ele>
        <time>2018-03-08T14:30:41Z</time>
      </trkpt>
      <trkpt lat="43.77323" lon="4.74172">
        <ele>79.93</ele>
        <time>2018-03-08T14:30:57Z</time>
      </trkpt>
      <trkpt lat="43.77317" lon="4.74188">
        <ele>82.33</ele>
        <time>2018-03-08T14:31:12Z</time>
      </trkpt>
      <trkpt lat="43.77315" lon="4.74204">
        <ele>84.25</ele>
        <time>2018-03-08T14:31:27Z</time>
      </trkpt>
      <trkpt lat="43.77313" lon="4.7422">
        <ele>88.1</ele>
        <time>2018-03-08T14:31:43Z</time>
      </trkpt>
      <trkpt lat="43.77312" lon="4.74225">
        <ele>87.62</ele>
        <time>2018-03-08T14:31:49Z</time>
      </trkpt>
      <trkpt lat="43.7731" lon="4.74231">
        <ele>89.06</ele>
        <time>2018-03-08T14:31:55Z</time>
      </trkpt>
      <trkpt lat="43.77301" lon="4.74246">
        <ele>91.46</ele>
        <time>2018-03-08T14:32:14Z</time>
      </trkpt>
      <trkpt lat="43.77292" lon="4.74257">
        <ele>93.39</ele>
        <time>2018-03-08T14:32:31Z</time>
      </trkpt>
      <trkpt lat="43.7728" lon="4.74265">
        <ele>94.83</ele>
        <time>2018-03-08T14:32:48Z</time>
      </trkpt>
      <trkpt lat="43.7727" lon="4.74276">
        <ele>97.23</ele>
        <time>2018-03-08T14:33:04Z</time>
      </trkpt>
      <trkpt lat="43.77276" lon="4.74282">
        <ele>98.19</ele>
        <time>2018-03-08T14:33:18Z</time>
      </trkpt>
      <trkpt lat="43.77282" lon="4.7428">
        <ele>98.19</ele>
        <time>2018-03-08T14:33:30Z</time>
      </trkpt>
      <trkpt lat="43.77296" lon="4.74272">
        <ele>98.19</ele>
        <time>2018-03-08T14:33:45Z</time>
      </trkpt>
      <trkpt lat="43.77312" lon="4.74266">
        <ele>98.67</ele>
        <time>2018-03-08T14:34:02Z</time>
      </trkpt>
      <trkpt lat="43.77317" lon="4.74262">
        <ele>99.63</ele>
        <time>2018-03-08T14:34:17Z</time>
      </trkpt>
      <trkpt lat="43.77324" lon="4.74258">
        <ele>99.63</ele>
        <time>2018-03-08T14:34:39Z</time>
      </trkpt>
      <trkpt lat="43.77337" lon="4.74243">
        <ele>101.08</ele>
        <time>2018-03-08T14:34:56Z</time>
      </trkpt>
      <trkpt lat="43.77337" lon="4.74242">
        <ele>101.08</ele>
        <time>2018-03-08T14:34:57Z</time>
      </trkpt>
      <trkpt lat="43.77349" lon="4.74231">
        <ele>102.52</ele>
        <time>2018-03-08T14:35:11Z</time>
      </trkpt>
      <trkpt lat="43.77361" lon="4.74216">
        <ele>103</ele>
        <time>2018-03-08T14:35:26Z</time>
      </trkpt>
      <trkpt lat="43.77371" lon="4.742">
        <ele>103</ele>
        <time>2018-03-08T14:35:40Z</time>
      </trkpt>
      <trkpt lat="43.77373" lon="4.74196">
        <ele>103.48</ele>
        <time>2018-03-08T14:35:53Z</time>
      </trkpt>
      <trkpt lat="43.77382" lon="4.74184">
        <ele>103.48</ele>
        <time>2018-03-08T14:36:10Z</time>
      </trkpt>
      <trkpt lat="43.77394" lon="4.7418">
        <ele>104.44</ele>
        <time>2018-03-08T14:36:26Z</time>
      </trkpt>
      <trkpt lat="43.77393" lon="4.74184">
        <ele>105.4</ele>
        <time>2018-03-08T14:36:45Z</time>
      </trkpt>
      <trkpt lat="43.77396" lon="4.74184">
        <ele>105.4</ele>
        <time>2018-03-08T14:37:01Z</time>
      </trkpt>
      <trkpt lat="43.77391" lon="4.74192">
        <ele>105.4</ele>
        <time>2018-03-08T14:37:15Z</time>
      </trkpt>
      <trkpt lat="43.77387" lon="4.74204">
        <ele>107.32</ele>
        <time>2018-03-08T14:37:27Z</time>
      </trkpt>
      <trkpt lat="43.77383" lon="4.74217">
        <ele>110.21</ele>
        <time>2018-03-08T14:37:44Z</time>
      </trkpt>
      <trkpt lat="43.77378" lon="4.74232">
        <ele>113.57</ele>
        <time>2018-03-08T14:38:03Z</time>
      </trkpt>
      <trkpt lat="43.77375" lon="4.74244">
        <ele>115.98</ele>
        <time>2018-03-08T14:38:24Z</time>
      </trkpt>
      <trkpt lat="43.77375" lon="4.74254">
        <ele>118.86</ele>
        <time>2018-03-08T14:38:40Z</time>
      </trkpt>
      <trkpt lat="43.77379" lon="4.74262">
        <ele>120.78</ele>
        <time>2018-03-08T14:38:53Z</time>
      </trkpt>
      <trkpt lat="43.7738" lon="4.74273">
        <ele>123.19</ele>
        <time>2018-03-08T14:39:07Z</time>
      </trkpt>
      <trkpt lat="43.77381" lon="4.74283">
        <ele>125.11</ele>
        <time>2018-03-08T14:39:18Z</time>
      </trkpt>
      <trkpt lat="43.77381" lon="4.74296">
        <ele>126.07</ele>
        <time>2018-03-08T14:39:32Z</time>
      </trkpt>
      <trkpt lat="43.77379" lon="4.74314">
        <ele>128.47</ele>
        <time>2018-03-08T14:39:49Z</time>
      </trkpt>
      <trkpt lat="43.77378" lon="4.74327">
        <ele>129.43</ele>
        <time>2018-03-08T14:40:00Z</time>
      </trkpt>
      <trkpt lat="43.77383" lon="4.7434">
        <ele>130.4</ele>
        <time>2018-03-08T14:40:12Z</time>
      </trkpt>
      <trkpt lat="43.7739" lon="4.7435">
        <ele>130.4</ele>
        <time>2018-03-08T14:40:21Z</time>
      </trkpt>
      <trkpt lat="43.77392" lon="4.74352">
        <ele>130.4</ele>
        <time>2018-03-08T14:40:24Z</time>
      </trkpt>
      <trkpt lat="43.77405" lon="4.74362">
        <ele>131.84</ele>
        <time>2018-03-08T14:40:40Z</time>
      </trkpt>
      <trkpt lat="43.77417" lon="4.74366">
        <ele>132.32</ele>
        <time>2018-03-08T14:40:54Z</time>
      </trkpt>
      <trkpt lat="43.77431" lon="4.74371">
        <ele>130.88</ele>
        <time>2018-03-08T14:41:09Z</time>
      </trkpt>
      <trkpt lat="43.77436" lon="4.74377">
        <ele>129.92</ele>
        <time>2018-03-08T14:41:20Z</time>
      </trkpt>
      <trkpt lat="43.77438" lon="4.74385">
        <ele>128.47</ele>
        <time>2018-03-08T14:41:37Z</time>
      </trkpt>
      <trkpt lat="43.77443" lon="4.74404">
        <ele>125.11</ele>
        <time>2018-03-08T14:41:57Z</time>
      </trkpt>
      <trkpt lat="43.7745" lon="4.74414">
        <ele>123.19</ele>
        <time>2018-03-08T14:42:12Z</time>
      </trkpt>
      <trkpt lat="43.7746" lon="4.74424">
        <ele>119.82</ele>
        <time>2018-03-08T14:42:27Z</time>
      </trkpt>
      <trkpt lat="43.77474" lon="4.74432">
        <ele>117.9</ele>
        <time>2018-03-08T14:42:44Z</time>
      </trkpt>
      <trkpt lat="43.77488" lon="4.74433">
        <ele>115.5</ele>
        <time>2018-03-08T14:43:01Z</time>
      </trkpt>
      <trkpt lat="43.77494" lon="4.7443">
        <ele>115.01</ele>
        <time>2018-03-08T14:43:15Z</time>
      </trkpt>
      <trkpt lat="43.77511" lon="4.74422">
        <ele>115.01</ele>
        <time>2018-03-08T14:43:32Z</time>
      </trkpt>
      <trkpt lat="43.77516" lon="4.74419">
        <ele>115.01</ele>
        <time>2018-03-08T14:43:37Z</time>
      </trkpt>
      <trkpt lat="43.7753" lon="4.74406">
        <ele>114.53</ele>
        <time>2018-03-08T14:43:53Z</time>
      </trkpt>
      <trkpt lat="43.77544" lon="4.74403">
        <ele>114.53</ele>
        <time>2018-03-08T14:44:07Z</time>
      </trkpt>
      <trkpt lat="43.77552" lon="4.74401">
        <ele>113.57</ele>
        <time>2018-03-08T14:44:15Z</time>
      </trkpt>
      <trkpt lat="43.77561" lon="4.74399">
        <ele>112.13</ele>
        <time>2018-03-08T14:44:30Z</time>
      </trkpt>
      <trkpt lat="43.77576" lon="4.74398">
        <ele>108.77</ele>
        <time>2018-03-08T14:44:48Z</time>
      </trkpt>
      <trkpt lat="43.77591" lon="4.74397">
        <ele>106.84</ele>
        <time>2018-03-08T14:45:04Z</time>
      </trkpt>
      <trkpt lat="43.77603" lon="4.74402">
        <ele>105.88</ele>
        <time>2018-03-08T14:45:16Z</time>
      </trkpt>
      <trkpt lat="43.77604" lon="4.74404">
        <ele>105.88</ele>
        <time>2018-03-08T14:45:18Z</time>
      </trkpt>
      <trkpt lat="43.77604" lon="4.74404">
        <ele>105.88</ele>
        <time>2018-03-08T14:49:34Z</time>
      </trkpt>
      <trkpt lat="43.77602" lon="4.74412">
        <ele>104.44</ele>
        <time>2018-03-08T14:49:46Z</time>
      </trkpt>
      <trkpt lat="43.77589" lon="4.74418">
        <ele>103</ele>
        <time>2018-03-08T14:50:01Z</time>
      </trkpt>
      <trkpt lat="43.77577" lon="4.74426">
        <ele>102.52</ele>
        <time>2018-03-08T14:50:14Z</time>
      </trkpt>
      <trkpt lat="43.77566" lon="4.74432">
        <ele>102.52</ele>
        <time>2018-03-08T14:50:27Z</time>
      </trkpt>
      <trkpt lat="43.7755" lon="4.74439">
        <ele>103.96</ele>
        <time>2018-03-08T14:50:42Z</time>
      </trkpt>
      <trkpt lat="43.77531" lon="4.74444">
        <ele>102.52</ele>
        <time>2018-03-08T14:51:00Z</time>
      </trkpt>
      <trkpt lat="43.77517" lon="4.74457">
        <ele>103.96</ele>
        <time>2018-03-08T14:51:15Z</time>
      </trkpt>
      <trkpt lat="43.77503" lon="4.74462">
        <ele>104.44</ele>
        <time>2018-03-08T14:51:29Z</time>
      </trkpt>
      <trkpt lat="43.7749" lon="4.7447">
        <ele>102.52</ele>
        <time>2018-03-08T14:51:44Z</time>
      </trkpt>
      <trkpt lat="43.77479" lon="4.74481">
        <ele>101.08</ele>
        <time>2018-03-08T14:51:59Z</time>
      </trkpt>
      <trkpt lat="43.77468" lon="4.74497">
        <ele>99.63</ele>
        <time>2018-03-08T14:52:14Z</time>
      </trkpt>
      <trkpt lat="43.77473" lon="4.74504">
        <ele>97.71</ele>
        <time>2018-03-08T14:52:29Z</time>
      </trkpt>
      <trkpt lat="43.77482" lon="4.74491">
        <ele>96.75</ele>
        <time>2018-03-08T14:52:44Z</time>
      </trkpt>
      <trkpt lat="43.77494" lon="4.74482">
        <ele>95.31</ele>
        <time>2018-03-08T14:53:00Z</time>
      </trkpt>
      <trkpt lat="43.77502" lon="4.74482">
        <ele>94.83</ele>
        <time>2018-03-08T14:53:06Z</time>
      </trkpt>
      <trkpt lat="43.77518" lon="4.74484">
        <ele>93.87</ele>
        <time>2018-03-08T14:53:22Z</time>
      </trkpt>
      <trkpt lat="43.77528" lon="4.74481">
        <ele>92.42</ele>
        <time>2018-03-08T14:53:34Z</time>
      </trkpt>
      <trkpt lat="43.77538" lon="4.7447">
        <ele>90.98</ele>
        <time>2018-03-08T14:53:49Z</time>
      </trkpt>
      <trkpt lat="43.7755" lon="4.74466">
        <ele>90.02</ele>
        <time>2018-03-08T14:54:04Z</time>
      </trkpt>
      <trkpt lat="43.77566" lon="4.74464">
        <ele>88.58</ele>
        <time>2018-03-08T14:54:21Z</time>
      </trkpt>
      <trkpt lat="43.77581" lon="4.74457">
        <ele>86.18</ele>
        <time>2018-03-08T14:54:37Z</time>
      </trkpt>
      <trkpt lat="43.77595" lon="4.7446">
        <ele>84.73</ele>
        <time>2018-03-08T14:54:53Z</time>
      </trkpt>
      <trkpt lat="43.77597" lon="4.74476">
        <ele>82.33</ele>
        <time>2018-03-08T14:55:07Z</time>
      </trkpt>
      <trkpt lat="43.77597" lon="4.74486">
        <ele>81.37</ele>
        <time>2018-03-08T14:55:13Z</time>
      </trkpt>
      <trkpt lat="43.77597" lon="4.74507">
        <ele>79.45</ele>
        <time>2018-03-08T14:55:29Z</time>
      </trkpt>
      <trkpt lat="43.77599" lon="4.7453">
        <ele>78.48</ele>
        <time>2018-03-08T14:55:46Z</time>
      </trkpt>
      <trkpt lat="43.77608" lon="4.74539">
        <ele>78</ele>
        <time>2018-03-08T14:56:01Z</time>
      </trkpt>
      <trkpt lat="43.77616" lon="4.74548">
        <ele>76.56</ele>
        <time>2018-03-08T14:56:15Z</time>
      </trkpt>
      <trkpt lat="43.77622" lon="4.74555">
        <ele>75.6</ele>
        <time>2018-03-08T14:56:23Z</time>
      </trkpt>
      <trkpt lat="43.77632" lon="4.74562">
        <ele>74.16</ele>
        <time>2018-03-08T14:56:35Z</time>
      </trkpt>
      <trkpt lat="43.77641" lon="4.74551">
        <ele>73.2</ele>
        <time>2018-03-08T14:56:50Z</time>
      </trkpt>
      <trkpt lat="43.77656" lon="4.74558">
        <ele>72.24</ele>
        <time>2018-03-08T14:57:07Z</time>
      </trkpt>
      <trkpt lat="43.7766" lon="4.74561">
        <ele>71.27</ele>
        <time>2018-03-08T14:57:15Z</time>
      </trkpt>
      <trkpt lat="43.77671" lon="4.74572">
        <ele>69.83</ele>
        <time>2018-03-08T14:57:29Z</time>
      </trkpt>
      <trkpt lat="43.77685" lon="4.74582">
        <ele>67.91</ele>
        <time>2018-03-08T14:57:44Z</time>
      </trkpt>
      <trkpt lat="43.77695" lon="4.74578">
        <ele>66.95</ele>
        <time>2018-03-08T14:57:59Z</time>
      </trkpt>
      <trkpt lat="43.77698" lon="4.74559">
        <ele>65.99</ele>
        <time>2018-03-08T14:58:15Z</time>
      </trkpt>
      <trkpt lat="43.77699" lon="4.74554">
        <ele>65.99</ele>
        <time>2018-03-08T14:58:19Z</time>
      </trkpt>
      <trkpt lat="43.77704" lon="4.74535">
        <ele>64.55</ele>
        <time>2018-03-08T14:58:34Z</time>
      </trkpt>
      <trkpt lat="43.77708" lon="4.7453">
        <ele>64.07</ele>
        <time>2018-03-08T14:58:40Z</time>
      </trkpt>
      <trkpt lat="43.77723" lon="4.74534">
        <ele>61.18</ele>
        <time>2018-03-08T14:58:56Z</time>
      </trkpt>
      <trkpt lat="43.77735" lon="4.74533">
        <ele>60.7</ele>
        <time>2018-03-08T14:59:08Z</time>
      </trkpt>
      <trkpt lat="43.77741" lon="4.74532">
        <ele>60.7</ele>
        <time>2018-03-08T14:59:14Z</time>
      </trkpt>
      <trkpt lat="43.77746" lon="4.7453">
        <ele>60.7</ele>
        <time>2018-03-08T14:59:18Z</time>
      </trkpt>
      <trkpt lat="43.77753" lon="4.74531">
        <ele>60.22</ele>
        <time>2018-03-08T14:59:23Z</time>
      </trkpt>
      <trkpt lat="43.77757" lon="4.74533">
        <ele>60.7</ele>
        <time>2018-03-08T14:59:27Z</time>
      </trkpt>
      <trkpt lat="43.77766" lon="4.74554">
        <ele>60.22</ele>
        <time>2018-03-08T14:59:43Z</time>
      </trkpt>
      <trkpt lat="43.77765" lon="4.74575">
        <ele>59.26</ele>
        <time>2018-03-08T14:59:58Z</time>
      </trkpt>
      <trkpt lat="43.77785" lon="4.74576">
        <ele>57.82</ele>
        <time>2018-03-08T15:00:17Z</time>
      </trkpt>
      <trkpt lat="43.77802" lon="4.74574">
        <ele>57.34</ele>
        <time>2018-03-08T15:00:35Z</time>
      </trkpt>
      <trkpt lat="43.77816" lon="4.74574">
        <ele>57.34</ele>
        <time>2018-03-08T15:00:48Z</time>
      </trkpt>
      <trkpt lat="43.77818" lon="4.74575">
        <ele>57.34</ele>
        <time>2018-03-08T15:00:49Z</time>
      </trkpt>
      <trkpt lat="43.77825" lon="4.74578">
        <ele>58.3</ele>
        <time>2018-03-08T15:00:56Z</time>
      </trkpt>
      <trkpt lat="43.77839" lon="4.74587">
        <ele>59.26</ele>
        <time>2018-03-08T15:01:09Z</time>
      </trkpt>
      <trkpt lat="43.77853" lon="4.7459">
        <ele>59.74</ele>
        <time>2018-03-08T15:01:22Z</time>
      </trkpt>
      <trkpt lat="43.77854" lon="4.7459">
        <ele>59.74</ele>
        <time>2018-03-08T15:01:23Z</time>
      </trkpt>
      <trkpt lat="43.77868" lon="4.74589">
        <ele>60.7</ele>
        <time>2018-03-08T15:01:37Z</time>
      </trkpt>
      <trkpt lat="43.77885" lon="4.74582">
        <ele>60.7</ele>
        <time>2018-03-08T15:01:53Z</time>
      </trkpt>
      <trkpt lat="43.77897" lon="4.74575">
        <ele>62.14</ele>
        <time>2018-03-08T15:02:06Z</time>
      </trkpt>
      <trkpt lat="43.77901" lon="4.74566">
        <ele>62.62</ele>
        <time>2018-03-08T15:02:14Z</time>
      </trkpt>
      <trkpt lat="43.77902" lon="4.74545">
        <ele>64.07</ele>
        <time>2018-03-08T15:02:29Z</time>
      </trkpt>
      <trkpt lat="43.77903" lon="4.74529">
        <ele>65.51</ele>
        <time>2018-03-08T15:02:40Z</time>
      </trkpt>
      <trkpt lat="43.77905" lon="4.74522">
        <ele>65.99</ele>
        <time>2018-03-08T15:02:45Z</time>
      </trkpt>
      <trkpt lat="43.77908" lon="4.74497">
        <ele>67.43</ele>
        <time>2018-03-08T15:03:03Z</time>
      </trkpt>
      <trkpt lat="43.77909" lon="4.74482">
        <ele>68.39</ele>
        <time>2018-03-08T15:03:16Z</time>
      </trkpt>
      <trkpt lat="43.77909" lon="4.74477">
        <ele>68.87</ele>
        <time>2018-03-08T15:03:19Z</time>
      </trkpt>
      <trkpt lat="43.77907" lon="4.74468">
        <ele>69.35</ele>
        <time>2018-03-08T15:03:25Z</time>
      </trkpt>
      <trkpt lat="43.779" lon="4.74449">
        <ele>69.83</ele>
        <time>2018-03-08T15:03:40Z</time>
      </trkpt>
      <trkpt lat="43.77896" lon="4.74445">
        <ele>70.31</ele>
        <time>2018-03-08T15:03:45Z</time>
      </trkpt>
      <trkpt lat="43.7789" lon="4.74436">
        <ele>71.27</ele>
        <time>2018-03-08T15:03:54Z</time>
      </trkpt>
      <trkpt lat="43.77881" lon="4.74426">
        <ele>73.68</ele>
        <time>2018-03-08T15:04:07Z</time>
      </trkpt>
      <trkpt lat="43.77871" lon="4.74417">
        <ele>75.12</ele>
        <time>2018-03-08T15:04:21Z</time>
      </trkpt>
      <trkpt lat="43.77862" lon="4.74409">
        <ele>76.56</ele>
        <time>2018-03-08T15:04:35Z</time>
      </trkpt>
      <trkpt lat="43.77854" lon="4.74399">
        <ele>78.48</ele>
        <time>2018-03-08T15:04:49Z</time>
      </trkpt>
      <trkpt lat="43.77852" lon="4.74388">
        <ele>79.93</ele>
        <time>2018-03-08T15:05:01Z</time>
      </trkpt>
      <trkpt lat="43.7785" lon="4.74369">
        <ele>81.85</ele>
        <time>2018-03-08T15:05:19Z</time>
      </trkpt>
      <trkpt lat="43.77845" lon="4.74361">
        <ele>82.81</ele>
        <time>2018-03-08T15:05:31Z</time>
      </trkpt>
      <trkpt lat="43.7784" lon="4.7435">
        <ele>84.73</ele>
        <time>2018-03-08T15:05:46Z</time>
      </trkpt>
      <trkpt lat="43.77834" lon="4.74345">
        <ele>85.21</ele>
        <time>2018-03-08T15:06:00Z</time>
      </trkpt>
      <trkpt lat="43.77825" lon="4.74347">
        <ele>86.18</ele>
        <time>2018-03-08T15:06:16Z</time>
      </trkpt>
      <trkpt lat="43.77818" lon="4.74352">
        <ele>88.58</ele>
        <time>2018-03-08T15:06:32Z</time>
      </trkpt>
      <trkpt lat="43.77812" lon="4.74357">
        <ele>90.02</ele>
        <time>2018-03-08T15:06:48Z</time>
      </trkpt>
      <trkpt lat="43.77804" lon="4.74359">
        <ele>92.42</ele>
        <time>2018-03-08T15:07:04Z</time>
      </trkpt>
      <trkpt lat="43.77799" lon="4.74365">
        <ele>94.83</ele>
        <time>2018-03-08T15:07:18Z</time>
      </trkpt>
      <trkpt lat="43.77798" lon="4.74376">
        <ele>98.19</ele>
        <time>2018-03-08T15:07:34Z</time>
      </trkpt>
      <trkpt lat="43.77799" lon="4.74381">
        <ele>98.67</ele>
        <time>2018-03-08T15:07:45Z</time>
      </trkpt>
      <trkpt lat="43.77801" lon="4.74379">
        <ele>99.15</ele>
        <time>2018-03-08T15:07:58Z</time>
      </trkpt>
      <trkpt lat="43.77799" lon="4.74377">
        <ele>99.15</ele>
        <time>2018-03-08T15:08:24Z</time>
      </trkpt>
      <trkpt lat="43.778" lon="4.74376">
        <ele>99.15</ele>
        <time>2018-03-08T15:08:45Z</time>
      </trkpt>
      <trkpt lat="43.77803" lon="4.7437">
        <ele>99.15</ele>
        <time>2018-03-08T15:08:57Z</time>
      </trkpt>
      <trkpt lat="43.77804" lon="4.74367">
        <ele>99.15</ele>
        <time>2018-03-08T15:09:19Z</time>
      </trkpt>
      <trkpt lat="43.77806" lon="4.74362">
        <ele>98.19</ele>
        <time>2018-03-08T15:09:32Z</time>
      </trkpt>
      <trkpt lat="43.77809" lon="4.74363">
        <ele>97.71</ele>
        <time>2018-03-08T15:09:49Z</time>
      </trkpt>
      <trkpt lat="43.77805" lon="4.74367">
        <ele>97.71</ele>
        <time>2018-03-08T15:10:02Z</time>
      </trkpt>
      <trkpt lat="43.77804" lon="4.7437">
        <ele>99.15</ele>
        <time>2018-03-08T15:10:17Z</time>
      </trkpt>
      <trkpt lat="43.77805" lon="4.74371">
        <ele>97.71</ele>
        <time>2018-03-08T15:10:34Z</time>
      </trkpt>
      <trkpt lat="43.77803" lon="4.74382">
        <ele>99.63</ele>
        <time>2018-03-08T15:10:53Z</time>
      </trkpt>
      <trkpt lat="43.7781" lon="4.74391">
        <ele>100.11</ele>
        <time>2018-03-08T15:11:09Z</time>
      </trkpt>
      <trkpt lat="43.77806" lon="4.7439">
        <ele>100.6</ele>
        <time>2018-03-08T15:11:32Z</time>
      </trkpt>
      <trkpt lat="43.77793" lon="4.74393">
        <ele>101.08</ele>
        <time>2018-03-08T15:11:46Z</time>
      </trkpt>
      <trkpt lat="43.77784" lon="4.74399">
        <ele>103</ele>
        <time>2018-03-08T15:12:01Z</time>
      </trkpt>
      <trkpt lat="43.77777" lon="4.74404">
        <ele>105.4</ele>
        <time>2018-03-08T15:12:17Z</time>
      </trkpt>
      <trkpt lat="43.77774" lon="4.74408">
        <ele>106.84</ele>
        <time>2018-03-08T15:12:31Z</time>
      </trkpt>
      <trkpt lat="43.7777" lon="4.74414">
        <ele>108.77</ele>
        <time>2018-03-08T15:12:44Z</time>
      </trkpt>
      <trkpt lat="43.77765" lon="4.74419">
        <ele>111.17</ele>
        <time>2018-03-08T15:12:58Z</time>
      </trkpt>
      <trkpt lat="43.77757" lon="4.74419">
        <ele>113.09</ele>
        <time>2018-03-08T15:13:12Z</time>
      </trkpt>
      <trkpt lat="43.77751" lon="4.74419">
        <ele>112.61</ele>
        <time>2018-03-08T15:13:27Z</time>
      </trkpt>
      <trkpt lat="43.77745" lon="4.74416">
        <ele>111.65</ele>
        <time>2018-03-08T15:13:39Z</time>
      </trkpt>
      <trkpt lat="43.7774" lon="4.74415">
        <ele>112.61</ele>
        <time>2018-03-08T15:13:48Z</time>
      </trkpt>
      <trkpt lat="43.77735" lon="4.74414">
        <ele>114.53</ele>
        <time>2018-03-08T15:14:02Z</time>
      </trkpt>
      <trkpt lat="43.77728" lon="4.74409">
        <ele>116.46</ele>
        <time>2018-03-08T15:14:16Z</time>
      </trkpt>
      <trkpt lat="43.77719" lon="4.74405">
        <ele>117.42</ele>
        <time>2018-03-08T15:14:30Z</time>
      </trkpt>
      <trkpt lat="43.77716" lon="4.74404">
        <ele>118.38</ele>
        <time>2018-03-08T15:14:44Z</time>
      </trkpt>
      <trkpt lat="43.77711" lon="4.74403">
        <ele>119.34</ele>
        <time>2018-03-08T15:15:01Z</time>
      </trkpt>
      <trkpt lat="43.77702" lon="4.74399">
        <ele>120.78</ele>
        <time>2018-03-08T15:15:16Z</time>
      </trkpt>
      <trkpt lat="43.77694" lon="4.74401">
        <ele>123.67</ele>
        <time>2018-03-08T15:15:33Z</time>
      </trkpt>
      <trkpt lat="43.77689" lon="4.74396">
        <ele>124.63</ele>
        <time>2018-03-08T15:15:48Z</time>
      </trkpt>
      <trkpt lat="43.77689" lon="4.74401">
        <ele>124.63</ele>
        <time>2018-03-08T15:16:02Z</time>
      </trkpt>
      <trkpt lat="43.77686" lon="4.7441">
        <ele>125.11</ele>
        <time>2018-03-08T15:16:16Z</time>
      </trkpt>
      <trkpt lat="43.77688" lon="4.74416">
        <ele>124.63</ele>
        <time>2018-03-08T15:16:34Z</time>
      </trkpt>
      <trkpt lat="43.77691" lon="4.7442">
        <ele>123.67</ele>
        <time>2018-03-08T15:16:43Z</time>
      </trkpt>
      <trkpt lat="43.77691" lon="4.74426">
        <ele>122.71</ele>
        <time>2018-03-08T15:17:00Z</time>
      </trkpt>
      <trkpt lat="43.77689" lon="4.74423">
        <ele>124.63</ele>
        <time>2018-03-08T15:17:11Z</time>
      </trkpt>
      <trkpt lat="43.77688" lon="4.7442">
        <ele>125.59</ele>
        <time>2018-03-08T15:17:21Z</time>
      </trkpt>
      <trkpt lat="43.77689" lon="4.74421">
        <ele>125.59</ele>
        <time>2018-03-08T15:17:48Z</time>
      </trkpt>
      <trkpt lat="43.7769" lon="4.74424">
        <ele>123.67</ele>
        <time>2018-03-08T15:18:06Z</time>
      </trkpt>
      <trkpt lat="43.7769" lon="4.74426">
        <ele>123.67</ele>
        <time>2018-03-08T15:18:29Z</time>
      </trkpt>
      <trkpt lat="43.77691" lon="4.74426">
        <ele>123.19</ele>
        <time>2018-03-08T15:18:53Z</time>
      </trkpt>
      <trkpt lat="43.77691" lon="4.74426">
        <ele>123.19</ele>
        <time>2018-03-08T15:19:18Z</time>
      </trkpt>
      <trkpt lat="43.7769" lon="4.74426">
        <ele>124.63</ele>
        <time>2018-03-08T15:19:20Z</time>
      </trkpt>
      <trkpt lat="43.77692" lon="4.74425">
        <ele>123.19</ele>
        <time>2018-03-08T15:19:44Z</time>
      </trkpt>
      <trkpt lat="43.77692" lon="4.74425">
        <ele>124.63</ele>
        <time>2018-03-08T15:20:00Z</time>
      </trkpt>
      <trkpt lat="43.77692" lon="4.74428">
        <ele>124.63</ele>
        <time>2018-03-08T15:20:24Z</time>
      </trkpt>
      <trkpt lat="43.77692" lon="4.74426">
        <ele>124.63</ele>
        <time>2018-03-08T15:20:45Z</time>
      </trkpt>
      <trkpt lat="43.77692" lon="4.74412">
        <ele>125.59</ele>
        <time>2018-03-08T15:21:01Z</time>
      </trkpt>
      <trkpt lat="43.77697" lon="4.74401">
        <ele>123.67</ele>
        <time>2018-03-08T15:21:18Z</time>
      </trkpt>
      <trkpt lat="43.77702" lon="4.744">
        <ele>122.71</ele>
        <time>2018-03-08T15:21:32Z</time>
      </trkpt>
      <trkpt lat="43.77713" lon="4.74404">
        <ele>120.78</ele>
        <time>2018-03-08T15:21:50Z</time>
      </trkpt>
      <trkpt lat="43.77723" lon="4.74408">
        <ele>118.86</ele>
        <time>2018-03-08T15:22:04Z</time>
      </trkpt>
      <trkpt lat="43.7773" lon="4.74411">
        <ele>116.94</ele>
        <time>2018-03-08T15:22:18Z</time>
      </trkpt>
      <trkpt lat="43.77734" lon="4.74414">
        <ele>116.94</ele>
        <time>2018-03-08T15:22:30Z</time>
      </trkpt>
      <trkpt lat="43.7774" lon="4.74416">
        <ele>115.98</ele>
        <time>2018-03-08T15:22:45Z</time>
      </trkpt>
      <trkpt lat="43.77747" lon="4.74417">
        <ele>114.05</ele>
        <time>2018-03-08T15:23:00Z</time>
      </trkpt>
      <trkpt lat="43.77756" lon="4.74419">
        <ele>115.01</ele>
        <time>2018-03-08T15:23:14Z</time>
      </trkpt>
      <trkpt lat="43.77768" lon="4.74417">
        <ele>112.61</ele>
        <time>2018-03-08T15:23:31Z</time>
      </trkpt>
      <trkpt lat="43.77774" lon="4.74406">
        <ele>109.25</ele>
        <time>2018-03-08T15:23:47Z</time>
      </trkpt>
      <trkpt lat="43.77783" lon="4.74395">
        <ele>105.88</ele>
        <time>2018-03-08T15:24:02Z</time>
      </trkpt>
      <trkpt lat="43.77784" lon="4.74391">
        <ele>105.4</ele>
        <time>2018-03-08T15:24:06Z</time>
      </trkpt>
      <trkpt lat="43.7779" lon="4.74379">
        <ele>103</ele>
        <time>2018-03-08T15:24:21Z</time>
      </trkpt>
      <trkpt lat="43.77793" lon="4.74374">
        <ele>101.56</ele>
        <time>2018-03-08T15:24:41Z</time>
      </trkpt>
      <trkpt lat="43.77795" lon="4.74367">
        <ele>99.15</ele>
        <time>2018-03-08T15:24:56Z</time>
      </trkpt>
      <trkpt lat="43.77799" lon="4.74362">
        <ele>96.75</ele>
        <time>2018-03-08T15:25:08Z</time>
      </trkpt>
      <trkpt lat="43.77802" lon="4.74359">
        <ele>95.31</ele>
        <time>2018-03-08T15:25:19Z</time>
      </trkpt>
      <trkpt lat="43.77809" lon="4.74357">
        <ele>92.9</ele>
        <time>2018-03-08T15:25:34Z</time>
      </trkpt>
      <trkpt lat="43.77815" lon="4.74352">
        <ele>91.46</ele>
        <time>2018-03-08T15:25:46Z</time>
      </trkpt>
      <trkpt lat="43.77822" lon="4.74342">
        <ele>89.54</ele>
        <time>2018-03-08T15:26:02Z</time>
      </trkpt>
      <trkpt lat="43.77824" lon="4.74342">
        <ele>89.06</ele>
        <time>2018-03-08T15:26:05Z</time>
      </trkpt>
      <trkpt lat="43.77833" lon="4.74344">
        <ele>87.62</ele>
        <time>2018-03-08T15:26:21Z</time>
      </trkpt>
      <trkpt lat="43.7784" lon="4.7435">
        <ele>86.66</ele>
        <time>2018-03-08T15:26:37Z</time>
      </trkpt>
      <trkpt lat="43.77845" lon="4.74362">
        <ele>85.69</ele>
        <time>2018-03-08T15:26:51Z</time>
      </trkpt>
      <trkpt lat="43.7785" lon="4.74365">
        <ele>83.77</ele>
        <time>2018-03-08T15:27:06Z</time>
      </trkpt>
      <trkpt lat="43.77857" lon="4.7436">
        <ele>81.37</ele>
        <time>2018-03-08T15:27:21Z</time>
      </trkpt>
      <trkpt lat="43.77859" lon="4.74348">
        <ele>79.45</ele>
        <time>2018-03-08T15:27:35Z</time>
      </trkpt>
      <trkpt lat="43.77861" lon="4.74334">
        <ele>78</ele>
        <time>2018-03-08T15:27:48Z</time>
      </trkpt>
      <trkpt lat="43.77865" lon="4.7432">
        <ele>75.12</ele>
        <time>2018-03-08T15:28:02Z</time>
      </trkpt>
      <trkpt lat="43.77868" lon="4.74308">
        <ele>72.72</ele>
        <time>2018-03-08T15:28:16Z</time>
      </trkpt>
      <trkpt lat="43.77869" lon="4.74299">
        <ele>71.27</ele>
        <time>2018-03-08T15:28:29Z</time>
      </trkpt>
      <trkpt lat="43.77869" lon="4.74295">
        <ele>70.79</ele>
        <time>2018-03-08T15:28:46Z</time>
      </trkpt>
      <trkpt lat="43.77869" lon="4.74285">
        <ele>68.87</ele>
        <time>2018-03-08T15:29:00Z</time>
      </trkpt>
      <trkpt lat="43.77874" lon="4.74276">
        <ele>66.47</ele>
        <time>2018-03-08T15:29:15Z</time>
      </trkpt>
      <trkpt lat="43.77876" lon="4.74264">
        <ele>64.07</ele>
        <time>2018-03-08T15:29:29Z</time>
      </trkpt>
      <trkpt lat="43.77877" lon="4.74257">
        <ele>62.62</ele>
        <time>2018-03-08T15:29:46Z</time>
      </trkpt>
      <trkpt lat="43.7788" lon="4.74258">
        <ele>61.66</ele>
        <time>2018-03-08T15:30:04Z</time>
      </trkpt>
      <trkpt lat="43.77883" lon="4.74259">
        <ele>60.22</ele>
        <time>2018-03-08T15:30:16Z</time>
      </trkpt>
      <trkpt lat="43.77886" lon="4.7426">
        <ele>59.74</ele>
        <time>2018-03-08T15:30:30Z</time>
      </trkpt>
      <trkpt lat="43.77894" lon="4.74263">
        <ele>57.82</ele>
        <time>2018-03-08T15:30:45Z</time>
      </trkpt>
      <trkpt lat="43.77897" lon="4.74256">
        <ele>55.41</ele>
        <time>2018-03-08T15:30:58Z</time>
      </trkpt>
      <trkpt lat="43.779" lon="4.74248">
        <ele>54.45</ele>
        <time>2018-03-08T15:31:18Z</time>
      </trkpt>
      <trkpt lat="43.77898" lon="4.7424">
        <ele>53.01</ele>
        <time>2018-03-08T15:31:32Z</time>
      </trkpt>
      <trkpt lat="43.77896" lon="4.74232">
        <ele>51.09</ele>
        <time>2018-03-08T15:31:46Z</time>
      </trkpt>
      <trkpt lat="43.77896" lon="4.74224">
        <ele>49.16</ele>
        <time>2018-03-08T15:32:04Z</time>
      </trkpt>
      <trkpt lat="43.77896" lon="4.74216">
        <ele>46.76</ele>
        <time>2018-03-08T15:32:19Z</time>
      </trkpt>
      <trkpt lat="43.77898" lon="4.7421">
        <ele>44.36</ele>
        <time>2018-03-08T15:32:36Z</time>
      </trkpt>
      <trkpt lat="43.77899" lon="4.74202">
        <ele>42.92</ele>
        <time>2018-03-08T15:32:49Z</time>
      </trkpt>
      <trkpt lat="43.77905" lon="4.74199">
        <ele>40.03</ele>
        <time>2018-03-08T15:33:03Z</time>
      </trkpt>
      <trkpt lat="43.77911" lon="4.74192">
        <ele>37.63</ele>
        <time>2018-03-08T15:33:17Z</time>
      </trkpt>
      <trkpt lat="43.77916" lon="4.74182">
        <ele>36.67</ele>
        <time>2018-03-08T15:33:25Z</time>
      </trkpt>
      <trkpt lat="43.77922" lon="4.74165">
        <ele>35.71</ele>
        <time>2018-03-08T15:33:39Z</time>
      </trkpt>
      <trkpt lat="43.77926" lon="4.74145">
        <ele>35.23</ele>
        <time>2018-03-08T15:33:54Z</time>
      </trkpt>
      <trkpt lat="43.7793" lon="4.74126">
        <ele>34.26</ele>
        <time>2018-03-08T15:34:09Z</time>
      </trkpt>
      <trkpt lat="43.77931" lon="4.74124">
        <ele>34.26</ele>
        <time>2018-03-08T15:34:11Z</time>
      </trkpt>
      <trkpt lat="43.77933" lon="4.74117">
        <ele>33.78</ele>
        <time>2018-03-08T15:34:24Z</time>
      </trkpt>
      <trkpt lat="43.77939" lon="4.74104">
        <ele>32.34</ele>
        <time>2018-03-08T15:34:37Z</time>
      </trkpt>
      <trkpt lat="43.77945" lon="4.74085">
        <ele>30.42</ele>
        <time>2018-03-08T15:34:51Z</time>
      </trkpt>
      <trkpt lat="43.7795" lon="4.74068">
        <ele>29.46</ele>
        <time>2018-03-08T15:35:04Z</time>
      </trkpt>
      <trkpt lat="43.77951" lon="4.7406">
        <ele>28.98</ele>
        <time>2018-03-08T15:35:11Z</time>
      </trkpt>
      <trkpt lat="43.77953" lon="4.74048">
        <ele>28.02</ele>
        <time>2018-03-08T15:35:23Z</time>
      </trkpt>
      <trkpt lat="43.77956" lon="4.74039">
        <ele>28.02</ele>
        <time>2018-03-08T15:35:35Z</time>
      </trkpt>
      <trkpt lat="43.7796" lon="4.74029">
        <ele>26.57</ele>
        <time>2018-03-08T15:35:47Z</time>
      </trkpt>
      <trkpt lat="43.77967" lon="4.74016">
        <ele>25.61</ele>
        <time>2018-03-08T15:35:58Z</time>
      </trkpt>
      <trkpt lat="43.77967" lon="4.74007">
        <ele>26.57</ele>
        <time>2018-03-08T15:36:12Z</time>
      </trkpt>
      <trkpt lat="43.77968" lon="4.74007">
        <ele>26.57</ele>
        <time>2018-03-08T15:36:13Z</time>
      </trkpt>
      <trkpt lat="43.7797" lon="4.73997">
        <ele>26.57</ele>
        <time>2018-03-08T15:36:27Z</time>
      </trkpt>
      <trkpt lat="43.77974" lon="4.73989">
        <ele>24.65</ele>
        <time>2018-03-08T15:36:41Z</time>
      </trkpt>
      <trkpt lat="43.77977" lon="4.7398">
        <ele>24.65</ele>
        <time>2018-03-08T15:36:53Z</time>
      </trkpt>
      <trkpt lat="43.77975" lon="4.73984">
        <ele>24.65</ele>
        <time>2018-03-08T15:37:11Z</time>
      </trkpt>
      <trkpt lat="43.77975" lon="4.73985">
        <ele>24.65</ele>
        <time>2018-03-08T15:37:12Z</time>
      </trkpt>
      <trkpt lat="43.77975" lon="4.73992">
        <ele>24.65</ele>
        <time>2018-03-08T15:37:17Z</time>
      </trkpt>
      <trkpt lat="43.7798" lon="4.73986">
        <ele>22.73</ele>
        <time>2018-03-08T15:37:29Z</time>
      </trkpt>
      <trkpt lat="43.77987" lon="4.73971">
        <ele>22.25</ele>
        <time>2018-03-08T15:37:43Z</time>
      </trkpt>
      <trkpt lat="43.77994" lon="4.73962">
        <ele>20.81</ele>
        <time>2018-03-08T15:37:56Z</time>
      </trkpt>
      <trkpt lat="43.77999" lon="4.73953">
        <ele>20.32</ele>
        <time>2018-03-08T15:38:07Z</time>
      </trkpt>
      <trkpt lat="43.78" lon="4.73946">
        <ele>19.36</ele>
        <time>2018-03-08T15:38:15Z</time>
      </trkpt>
      <trkpt lat="43.78006" lon="4.73932">
        <ele>17.44</ele>
        <time>2018-03-08T15:38:27Z</time>
      </trkpt>
      <trkpt lat="43.78011" lon="4.73916">
        <ele>16.96</ele>
        <time>2018-03-08T15:38:42Z</time>
      </trkpt>
      <trkpt lat="43.78011" lon="4.73898">
        <ele>16</ele>
        <time>2018-03-08T15:38:53Z</time>
      </trkpt>
      <trkpt lat="43.7801" lon="4.73867">
        <ele>15.52</ele>
        <time>2018-03-08T15:39:12Z</time>
      </trkpt>
      <trkpt lat="43.78011" lon="4.73853">
        <ele>15.52</ele>
        <time>2018-03-08T15:39:24Z</time>
      </trkpt>
      <trkpt lat="43.78009" lon="4.73837">
        <ele>15.52</ele>
        <time>2018-03-08T15:39:35Z</time>
      </trkpt>
      <trkpt lat="43.78009" lon="4.73832">
        <ele>15.52</ele>
        <time>2018-03-08T15:39:38Z</time>
      </trkpt>
      <trkpt lat="43.78003" lon="4.73823">
        <ele>15.04</ele>
        <time>2018-03-08T15:39:47Z</time>
      </trkpt>
      <trkpt lat="43.78008" lon="4.738">
        <ele>14.56</ele>
        <time>2018-03-08T15:40:02Z</time>
      </trkpt>
      <trkpt lat="43.78012" lon="4.73779">
        <ele>14.56</ele>
        <time>2018-03-08T15:40:16Z</time>
      </trkpt>
      <trkpt lat="43.78011" lon="4.73774">
        <ele>14.56</ele>
        <time>2018-03-08T15:40:20Z</time>
      </trkpt>
      <trkpt lat="43.78011" lon="4.73768">
        <ele>14.56</ele>
        <time>2018-03-08T15:40:24Z</time>
      </trkpt>
      <trkpt lat="43.78011" lon="4.7376">
        <ele>14.56</ele>
        <time>2018-03-08T15:40:29Z</time>
      </trkpt>
      <trkpt lat="43.78012" lon="4.73746">
        <ele>14.56</ele>
        <time>2018-03-08T15:40:41Z</time>
      </trkpt>
      <trkpt lat="43.78012" lon="4.73722">
        <ele>13.12</ele>
        <time>2018-03-08T15:40:56Z</time>
      </trkpt>
      <trkpt lat="43.78015" lon="4.73708">
        <ele>12.63</ele>
        <time>2018-03-08T15:41:06Z</time>
      </trkpt>
      <trkpt lat="43.78016" lon="4.737">
        <ele>12.63</ele>
        <time>2018-03-08T15:41:11Z</time>
      </trkpt>
      <trkpt lat="43.78019" lon="4.73676">
        <ele>12.63</ele>
        <time>2018-03-08T15:41:28Z</time>
      </trkpt>
      <trkpt lat="43.78022" lon="4.73651">
        <ele>12.15</ele>
        <time>2018-03-08T15:41:42Z</time>
      </trkpt>
      <trkpt lat="43.78025" lon="4.73631">
        <ele>11.67</ele>
        <time>2018-03-08T15:41:54Z</time>
      </trkpt>
      <trkpt lat="43.78028" lon="4.73604">
        <ele>11.67</ele>
        <time>2018-03-08T15:42:12Z</time>
      </trkpt>
      <trkpt lat="43.78029" lon="4.73587">
        <ele>11.67</ele>
        <time>2018-03-08T15:42:23Z</time>
      </trkpt>
      <trkpt lat="43.78029" lon="4.73584">
        <ele>11.67</ele>
        <time>2018-03-08T15:42:25Z</time>
      </trkpt>
      <trkpt lat="43.78029" lon="4.7358">
        <ele>11.67</ele>
        <time>2018-03-08T15:42:27Z</time>
      </trkpt>
      <trkpt lat="43.78034" lon="4.73553">
        <ele>10.71</ele>
        <time>2018-03-08T15:42:46Z</time>
      </trkpt>
      <trkpt lat="43.78035" lon="4.7355">
        <ele>10.71</ele>
        <time>2018-03-08T15:42:48Z</time>
      </trkpt>
      <trkpt lat="43.78035" lon="4.73529">
        <ele>10.23</ele>
        <time>2018-03-08T15:43:03Z</time>
      </trkpt>
      <trkpt lat="43.78035" lon="4.7352">
        <ele>10.23</ele>
        <time>2018-03-08T15:43:08Z</time>
      </trkpt>
      <trkpt lat="43.78036" lon="4.73497">
        <ele>9.75</ele>
        <time>2018-03-08T15:43:23Z</time>
      </trkpt>
      <trkpt lat="43.78045" lon="4.73477">
        <ele>9.75</ele>
        <time>2018-03-08T15:43:37Z</time>
      </trkpt>
      <trkpt lat="43.78047" lon="4.73451">
        <ele>9.75</ele>
        <time>2018-03-08T15:43:53Z</time>
      </trkpt>
      <trkpt lat="43.78049" lon="4.73426">
        <ele>9.75</ele>
        <time>2018-03-08T15:44:09Z</time>
      </trkpt>
      <trkpt lat="43.78053" lon="4.73404">
        <ele>9.27</ele>
        <time>2018-03-08T15:44:24Z</time>
      </trkpt>
      <trkpt lat="43.78057" lon="4.73396">
        <ele>9.27</ele>
        <time>2018-03-08T15:44:30Z</time>
      </trkpt>
      <trkpt lat="43.7806" lon="4.73374">
        <ele>8.79</ele>
        <time>2018-03-08T15:44:46Z</time>
      </trkpt>
      <trkpt lat="43.78066" lon="4.73357">
        <ele>8.79</ele>
        <time>2018-03-08T15:44:59Z</time>
      </trkpt>
      <trkpt lat="43.78069" lon="4.7334">
        <ele>8.31</ele>
        <time>2018-03-08T15:45:13Z</time>
      </trkpt>
      <trkpt lat="43.7807" lon="4.73338">
        <ele>8.31</ele>
        <time>2018-03-08T15:45:14Z</time>
      </trkpt>
      <trkpt lat="43.78073" lon="4.7333">
        <ele>8.31</ele>
        <time>2018-03-08T15:45:20Z</time>
      </trkpt>
      <trkpt lat="43.78075" lon="4.73314">
        <ele>7.83</ele>
        <time>2018-03-08T15:45:30Z</time>
      </trkpt>
      <trkpt lat="43.78082" lon="4.73292">
        <ele>7.35</ele>
        <time>2018-03-08T15:45:45Z</time>
      </trkpt>
      <trkpt lat="43.78094" lon="4.73272">
        <ele>7.35</ele>
        <time>2018-03-08T15:45:59Z</time>
      </trkpt>
      <trkpt lat="43.78101" lon="4.73251">
        <ele>8.31</ele>
        <time>2018-03-08T15:46:16Z</time>
      </trkpt>
      <trkpt lat="43.78104" lon="4.7324">
        <ele>8.31</ele>
        <time>2018-03-08T15:46:24Z</time>
      </trkpt>
      <trkpt lat="43.78107" lon="4.73235">
        <ele>8.31</ele>
        <time>2018-03-08T15:46:28Z</time>
      </trkpt>
      <trkpt lat="43.78117" lon="4.73216">
        <ele>6.87</ele>
        <time>2018-03-08T15:46:42Z</time>
      </trkpt>
      <trkpt lat="43.78121" lon="4.73201">
        <ele>6.87</ele>
        <time>2018-03-08T15:46:54Z</time>
      </trkpt>
      <trkpt lat="43.78125" lon="4.73186">
        <ele>6.87</ele>
        <time>2018-03-08T15:47:06Z</time>
      </trkpt>
      <trkpt lat="43.78127" lon="4.73168">
        <ele>6.87</ele>
        <time>2018-03-08T15:47:19Z</time>
      </trkpt>
      <trkpt lat="43.78129" lon="4.73161">
        <ele>6.87</ele>
        <time>2018-03-08T15:47:23Z</time>
      </trkpt>
      <trkpt lat="43.78133" lon="4.73152">
        <ele>6.87</ele>
        <time>2018-03-08T15:47:29Z</time>
      </trkpt>
      <trkpt lat="43.78134" lon="4.73149">
        <ele>6.87</ele>
        <time>2018-03-08T15:47:31Z</time>
      </trkpt>
      <trkpt lat="43.78137" lon="4.7313">
        <ele>6.87</ele>
        <time>2018-03-08T15:47:44Z</time>
      </trkpt>
      <trkpt lat="43.7814" lon="4.7311">
        <ele>6.87</ele>
        <time>2018-03-08T15:47:58Z</time>
      </trkpt>
      <trkpt lat="43.7814" lon="4.73094">
        <ele>6.87</ele>
        <time>2018-03-08T15:48:11Z</time>
      </trkpt>
      <trkpt lat="43.7814" lon="4.73092">
        <ele>6.87</ele>
        <time>2018-03-08T15:48:13Z</time>
      </trkpt>
      <trkpt lat="43.7814" lon="4.73088">
        <ele>6.87</ele>
        <time>2018-03-08T15:48:16Z</time>
      </trkpt>
      <trkpt lat="43.78138" lon="4.73082">
        <ele>6.87</ele>
        <time>2018-03-08T15:48:21Z</time>
      </trkpt>
      <trkpt lat="43.78135" lon="4.73068">
        <ele>6.87</ele>
        <time>2018-03-08T15:48:32Z</time>
      </trkpt>
      <trkpt lat="43.78133" lon="4.73049">
        <ele>6.87</ele>
        <time>2018-03-08T15:48:49Z</time>
      </trkpt>
      <trkpt lat="43.78136" lon="4.73048">
        <ele>6.87</ele>
        <time>2018-03-08T15:48:51Z</time>
      </trkpt>
      <trkpt lat="43.78143" lon="4.73028">
        <ele>6.87</ele>
        <time>2018-03-08T15:49:08Z</time>
      </trkpt>
      <trkpt lat="43.78143" lon="4.73017">
        <ele>6.87</ele>
        <time>2018-03-08T15:49:23Z</time>
      </trkpt>
      <trkpt lat="43.78143" lon="4.73016">
        <ele>8.31</ele>
        <time>2018-03-08T15:49:28Z</time>
      </trkpt>
    </trkseg>
  </trk>
</gpx>